sensor_id;sensor_type;location;lat;lon;timestamp;P1;durP1;ratioP1;P2;durP2;ratioP2
25319;SDS011;13256;49.012;8.610;2024-02-15T00:55:53;3.45;;;1.50;;
25319;SDS011;13256;49.012;8.610;2024-02-15T01:28:20;3.13;;;1.75;;
25319;SDS011;13256;49.012;8.610;2024-02-15T02:49:07;4.68;;;1.35;;
25319;SDS011;13256;49.012;8.610;2024-02-15T02:51:34;4.22;;;1.60;;
25319;SDS011;13256;49.012;8.610;2024-02-15T02:54:01;2.70;;;1.45;;
25319;SDS011;13256;49.012;8.610;2024-02-15T02:56:32;4.43;;;1.40;;
25319;SDS011;13256;49.012;8.610;2024-02-15T02:59:07;1.75;;;1.25;;
25319;SDS011;13256;49.012;8.610;2024-02-15T03:01:34;3.60;;;1.40;;
25319;SDS011;13256;49.012;8.610;2024-02-15T03:04:01;3.38;;;1.40;;
25319;SDS011;13256;49.012;8.610;2024-02-15T03:06:27;2.72;;;1.60;;
25319;SDS011;13256;49.012;8.610;2024-02-15T03:08:55;3.20;;;1.40;;
25319;SDS011;13256;49.012;8.610;2024-02-15T03:11:25;4.93;;;1.25;;
25319;SDS011;13256;49.012;8.610;2024-02-15T03:13:54;2.25;;;1.30;;
25319;SDS011;13256;49.012;8.610;2024-02-15T03:16:23;4.18;;;1.42;;
25319;SDS011;13256;49.012;8.610;2024-02-15T03:18:51;3.45;;;1.77;;
25319;SDS011;13256;49.012;8.610;2024-02-15T03:21:19;5.57;;;1.65;;
25319;SDS011;13256;49.012;8.610;2024-02-15T03:23:48;2.85;;;1.48;;
25319;SDS011;13256;49.012;8.610;2024-02-15T03:26:15;3.45;;;1.52;;
25319;SDS011;13256;49.012;8.610;2024-02-15T03:28:44;4.95;;;1.80;;
25319;SDS011;13256;49.012;8.610;2024-02-15T03:31:14;7.57;;;1.83;;
25319;SDS011;13256;49.012;8.610;2024-02-15T03:33:41;2.42;;;1.45;;
25319;SDS011;13256;49.012;8.610;2024-02-15T03:36:12;3.22;;;1.60;;
25319;SDS011;13256;49.012;8.610;2024-02-15T03:38:43;2.78;;;1.25;;
25319;SDS011;13256;49.012;8.610;2024-02-15T03:41:13;3.67;;;1.15;;
25319;SDS011;13256;49.012;8.610;2024-02-15T03:43:43;6.45;;;1.55;;
25319;SDS011;13256;49.012;8.610;2024-02-15T03:46:11;3.50;;;1.45;;
25319;SDS011;13256;49.012;8.610;2024-02-15T03:48:42;7.53;;;1.83;;
25319;SDS011;13256;49.012;8.610;2024-02-15T03:51:15;4.40;;;1.38;;
25319;SDS011;13256;49.012;8.610;2024-02-15T03:53:48;4.97;;;1.80;;
25319;SDS011;13256;49.012;8.610;2024-02-15T03:56:22;3.08;;;1.73;;
25319;SDS011;13256;49.012;8.610;2024-02-15T03:58:48;4.25;;;1.70;;
25319;SDS011;13256;49.012;8.610;2024-02-15T04:01:16;4.95;;;1.83;;
25319;SDS011;13256;49.012;8.610;2024-02-15T04:03:47;9.43;;;2.13;;
25319;SDS011;13256;49.012;8.610;2024-02-15T04:06:17;4.80;;;2.00;;
25319;SDS011;13256;49.012;8.610;2024-02-15T04:08:46;8.02;;;2.20;;
25319;SDS011;13256;49.012;8.610;2024-02-15T04:11:13;5.15;;;2.13;;
25319;SDS011;13256;49.012;8.610;2024-02-15T04:13:45;5.28;;;2.60;;
25319;SDS011;13256;49.012;8.610;2024-02-15T04:16:15;6.20;;;2.60;;
25319;SDS011;13256;49.012;8.610;2024-02-15T04:18:44;7.35;;;2.85;;
25319;SDS011;13256;49.012;8.610;2024-02-15T04:21:12;6.03;;;2.35;;
25319;SDS011;13256;49.012;8.610;2024-02-15T04:23:40;6.95;;;1.98;;
25319;SDS011;13256;49.012;8.610;2024-02-15T04:26:07;3.10;;;1.50;;
25319;SDS011;13256;49.012;8.610;2024-02-15T04:28:34;5.50;;;1.77;;
25319;SDS011;13256;49.012;8.610;2024-02-15T04:31:05;6.97;;;2.05;;
25319;SDS011;13256;49.012;8.610;2024-02-15T04:33:34;2.53;;;1.52;;
25319;SDS011;13256;49.012;8.610;2024-02-15T04:36:01;3.33;;;1.80;;
25319;SDS011;13256;49.012;8.610;2024-02-15T04:38:34;5.43;;;2.00;;
25319;SDS011;13256;49.012;8.610;2024-02-15T04:41:01;3.72;;;1.73;;
25319;SDS011;13256;49.012;8.610;2024-02-15T04:43:33;6.32;;;2.00;;
25319;SDS011;13256;49.012;8.610;2024-02-15T04:46:02;4.57;;;1.70;;
25319;SDS011;13256;49.012;8.610;2024-02-15T04:48:33;3.22;;;1.60;;
25319;SDS011;13256;49.012;8.610;2024-02-15T04:51:03;3.92;;;1.98;;
25319;SDS011;13256;49.012;8.610;2024-02-15T04:53:30;2.95;;;1.80;;
25319;SDS011;13256;49.012;8.610;2024-02-15T04:55:58;8.48;;;1.95;;
25319;SDS011;13256;49.012;8.610;2024-02-15T04:58:27;6.10;;;2.33;;
25319;SDS011;13256;49.012;8.610;2024-02-15T05:00:55;6.63;;;1.70;;
25319;SDS011;13256;49.012;8.610;2024-02-15T05:03:25;6.25;;;2.22;;
25319;SDS011;13256;49.012;8.610;2024-02-15T05:05:55;5.38;;;2.28;;
25319;SDS011;13256;49.012;8.610;2024-02-15T05:08:31;5.40;;;2.50;;
25319;SDS011;13256;49.012;8.610;2024-02-15T05:11:04;3.63;;;1.80;;
25319;SDS011;13256;49.012;8.610;2024-02-15T05:13:32;3.15;;;2.25;;
25319;SDS011;13256;49.012;8.610;2024-02-15T05:16:07;4.28;;;2.38;;
25319;SDS011;13256;49.012;8.610;2024-02-15T05:18:41;4.53;;;2.28;;
25319;SDS011;13256;49.012;8.610;2024-02-15T05:23:55;8.27;;;2.75;;
25319;SDS011;13256;49.012;8.610;2024-02-15T05:26:26;8.25;;;2.47;;
25319;SDS011;13256;49.012;8.610;2024-02-15T05:28:54;5.32;;;2.70;;
25319;SDS011;13256;49.012;8.610;2024-02-15T05:31:23;8.75;;;2.92;;
25319;SDS011;13256;49.012;8.610;2024-02-15T05:33:56;7.93;;;2.83;;
25319;SDS011;13256;49.012;8.610;2024-02-15T05:36:24;6.10;;;2.92;;
25319;SDS011;13256;49.012;8.610;2024-02-15T05:38:56;5.53;;;2.58;;
25319;SDS011;13256;49.012;8.610;2024-02-15T05:41:28;4.40;;;2.63;;
25319;SDS011;13256;49.012;8.610;2024-02-15T05:44:06;4.82;;;2.13;;
25319;SDS011;13256;49.012;8.610;2024-02-15T05:58:14;6.05;;;3.50;;
25319;SDS011;13256;49.012;8.610;2024-02-15T06:00:45;6.80;;;3.22;;
25319;SDS011;13256;49.012;8.610;2024-02-15T06:03:16;6.07;;;2.75;;
25319;SDS011;13256;49.012;8.610;2024-02-15T06:05:48;4.47;;;2.65;;
25319;SDS011;13256;49.012;8.610;2024-02-15T06:08:16;8.55;;;3.28;;
25319;SDS011;13256;49.012;8.610;2024-02-15T06:10:56;7.25;;;3.30;;
25319;SDS011;13256;49.012;8.610;2024-02-15T06:13:23;9.48;;;3.15;;
25319;SDS011;13256;49.012;8.610;2024-02-15T06:15:58;6.72;;;2.92;;
25319;SDS011;13256;49.012;8.610;2024-02-15T06:21:04;10.75;;;4.13;;
25319;SDS011;13256;49.012;8.610;2024-02-15T06:23:37;8.05;;;3.10;;
25319;SDS011;13256;49.012;8.610;2024-02-15T06:26:07;9.75;;;3.55;;
25319;SDS011;13256;49.012;8.610;2024-02-15T06:28:36;10.10;;;3.38;;
25319;SDS011;13256;49.012;8.610;2024-02-15T06:31:22;11.20;;;4.72;;
25319;SDS011;13256;49.012;8.610;2024-02-15T06:34:23;15.02;;;6.00;;
25319;SDS011;13256;49.012;8.610;2024-02-15T06:37:17;21.20;;;7.00;;
25319;SDS011;13256;49.012;8.610;2024-02-15T06:40:24;21.52;;;9.10;;
25319;SDS011;13256;49.012;8.610;2024-02-15T06:42:53;22.90;;;10.60;;
25319;SDS011;13256;49.012;8.610;2024-02-15T06:45:23;19.35;;;8.13;;
25319;SDS011;13256;49.012;8.610;2024-02-15T06:47:53;13.23;;;6.20;;
25319;SDS011;13256;49.012;8.610;2024-02-15T06:50:39;12.95;;;6.10;;
25319;SDS011;13256;49.012;8.610;2024-02-15T06:53:06;13.40;;;6.35;;
25319;SDS011;13256;49.012;8.610;2024-02-15T06:55:34;10.52;;;5.45;;
25319;SDS011;13256;49.012;8.610;2024-02-15T06:58:05;12.50;;;6.40;;
25319;SDS011;13256;49.012;8.610;2024-02-15T07:00:32;16.90;;;6.40;;
25319;SDS011;13256;49.012;8.610;2024-02-15T07:03:00;13.85;;;5.97;;
25319;SDS011;13256;49.012;8.610;2024-02-15T07:05:31;10.50;;;5.70;;
25319;SDS011;13256;49.012;8.610;2024-02-15T07:08:02;15.13;;;6.18;;
25319;SDS011;13256;49.012;8.610;2024-02-15T07:10:34;17.30;;;6.05;;
25319;SDS011;13256;49.012;8.610;2024-02-15T07:13:14;13.73;;;5.45;;
25319;SDS011;13256;49.012;8.610;2024-02-15T07:15:57;13.48;;;5.85;;
25319;SDS011;13256;49.012;8.610;2024-02-15T07:18:23;10.52;;;5.18;;
25319;SDS011;13256;49.012;8.610;2024-02-15T07:21:03;10.30;;;5.20;;
25319;SDS011;13256;49.012;8.610;2024-02-15T07:23:37;10.05;;;4.97;;
25319;SDS011;13256;49.012;8.610;2024-02-15T07:26:10;10.98;;;6.10;;
25319;SDS011;13256;49.012;8.610;2024-02-15T07:28:40;12.20;;;6.25;;
25319;SDS011;13256;49.012;8.610;2024-02-15T07:31:29;13.30;;;5.55;;
25319;SDS011;13256;49.012;8.610;2024-02-15T07:34:02;16.70;;;5.65;;
25319;SDS011;13256;49.012;8.610;2024-02-15T07:36:35;14.02;;;6.50;;
25319;SDS011;13256;49.012;8.610;2024-02-15T07:39:08;13.60;;;6.32;;
25319;SDS011;13256;49.012;8.610;2024-02-15T07:41:39;19.77;;;8.75;;
25319;SDS011;13256;49.012;8.610;2024-02-15T07:44:06;25.13;;;9.23;;
25319;SDS011;13256;49.012;8.610;2024-02-15T07:46:37;19.27;;;9.40;;
25319;SDS011;13256;49.012;8.610;2024-02-15T07:49:05;24.00;;;12.70;;
25319;SDS011;13256;49.012;8.610;2024-02-15T07:51:42;13.63;;;7.47;;
25319;SDS011;13256;49.012;8.610;2024-02-15T07:54:09;10.38;;;3.53;;
25319;SDS011;13256;49.012;8.610;2024-02-15T07:56:44;5.85;;;2.58;;
25319;SDS011;13256;49.012;8.610;2024-02-15T07:59:11;6.13;;;2.78;;
25319;SDS011;13256;49.012;8.610;2024-02-15T08:01:42;9.10;;;1.70;;
25319;SDS011;13256;49.012;8.610;2024-02-15T08:04:10;4.10;;;2.42;;
25319;SDS011;13256;49.012;8.610;2024-02-15T08:06:45;5.75;;;2.03;;
25319;SDS011;13256;49.012;8.610;2024-02-15T08:09:15;4.65;;;2.10;;
25319;SDS011;13256;49.012;8.610;2024-02-15T08:12:03;5.05;;;2.10;;
25319;SDS011;13256;49.012;8.610;2024-02-15T08:14:33;5.72;;;1.90;;
25319;SDS011;13256;49.012;8.610;2024-02-15T08:17:06;3.80;;;2.20;;
25319;SDS011;13256;49.012;8.610;2024-02-15T08:19:34;6.28;;;2.20;;
25319;SDS011;13256;49.012;8.610;2024-02-15T08:22:04;6.85;;;2.83;;
25319;SDS011;13256;49.012;8.610;2024-02-15T08:24:32;17.40;;;7.22;;
25319;SDS011;13256;49.012;8.610;2024-02-15T08:27:05;16.25;;;5.85;;
25319;SDS011;13256;49.012;8.610;2024-02-15T08:29:35;8.38;;;3.83;;
25319;SDS011;13256;49.012;8.610;2024-02-15T08:32:08;6.95;;;2.53;;
25319;SDS011;13256;49.012;8.610;2024-02-15T08:34:35;9.07;;;2.50;;
25319;SDS011;13256;49.012;8.610;2024-02-15T08:37:08;6.65;;;2.40;;
25319;SDS011;13256;49.012;8.610;2024-02-15T08:39:36;11.50;;;4.00;;
25319;SDS011;13256;49.012;8.610;2024-02-15T08:42:21;4.57;;;2.88;;
25319;SDS011;13256;49.012;8.610;2024-02-15T08:44:48;6.07;;;3.05;;
25319;SDS011;13256;49.012;8.610;2024-02-15T08:47:20;6.90;;;2.72;;
25319;SDS011;13256;49.012;8.610;2024-02-15T08:49:47;8.70;;;2.97;;
25319;SDS011;13256;49.012;8.610;2024-02-15T08:52:17;8.48;;;2.60;;
25319;SDS011;13256;49.012;8.610;2024-02-15T08:54:49;7.78;;;3.03;;
25319;SDS011;13256;49.012;8.610;2024-02-15T08:57:28;4.72;;;2.50;;
25319;SDS011;13256;49.012;8.610;2024-02-15T08:59:55;4.75;;;2.08;;
25319;SDS011;13256;49.012;8.610;2024-02-15T09:02:43;8.13;;;3.17;;
25319;SDS011;13256;49.012;8.610;2024-02-15T09:05:10;7.93;;;2.63;;
25319;SDS011;13256;49.012;8.610;2024-02-15T09:07:43;4.28;;;2.33;;
25319;SDS011;13256;49.012;8.610;2024-02-15T09:10:18;3.45;;;1.77;;
25319;SDS011;13256;49.012;8.610;2024-02-15T09:12:46;4.65;;;1.95;;
25319;SDS011;13256;49.012;8.610;2024-02-15T09:15:15;3.47;;;1.35;;
25319;SDS011;13256;49.012;8.610;2024-02-15T09:23:36;6.95;;;1.60;;
25319;SDS011;13256;49.012;8.610;2024-02-15T09:26:13;2.05;;;1.20;;
25319;SDS011;13256;49.012;8.610;2024-02-15T09:28:57;3.38;;;1.63;;
25319;SDS011;13256;49.012;8.610;2024-02-15T09:31:24;3.78;;;1.50;;
25319;SDS011;13256;49.012;8.610;2024-02-15T09:33:53;2.45;;;1.35;;
25319;SDS011;13256;49.012;8.610;2024-02-15T09:36:25;2.15;;;1.10;;
25319;SDS011;13256;49.012;8.610;2024-02-15T09:39:16;3.85;;;1.20;;
25319;SDS011;13256;49.012;8.610;2024-02-15T09:41:55;3.25;;;1.30;;
25319;SDS011;13256;49.012;8.610;2024-02-15T09:44:38;2.38;;;0.85;;
25319;SDS011;13256;49.012;8.610;2024-02-15T09:47:06;4.30;;;1.33;;
25319;SDS011;13256;49.012;8.610;2024-02-15T09:49:38;2.88;;;0.95;;
25319;SDS011;13256;49.012;8.610;2024-02-15T09:52:07;1.80;;;0.90;;
25319;SDS011;13256;49.012;8.610;2024-02-15T09:54:42;2.40;;;0.68;;
25319;SDS011;13256;49.012;8.610;2024-02-15T09:57:14;1.10;;;0.70;;
25319;SDS011;13256;49.012;8.610;2024-02-15T09:59:54;2.22;;;0.95;;
25319;SDS011;13256;49.012;8.610;2024-02-15T10:02:21;3.58;;;0.98;;
25319;SDS011;13256;49.012;8.610;2024-02-15T10:04:49;1.05;;;0.80;;
25319;SDS011;13256;49.012;8.610;2024-02-15T10:07:18;1.80;;;0.88;;
25319;SDS011;13256;49.012;8.610;2024-02-15T10:09:49;2.37;;;1.00;;
25319;SDS011;13256;49.012;8.610;2024-02-15T10:12:18;2.28;;;0.77;;
25319;SDS011;13256;49.012;8.610;2024-02-15T10:15:07;3.47;;;1.10;;
25319;SDS011;13256;49.012;8.610;2024-02-15T10:17:41;3.75;;;1.02;;
25319;SDS011;13256;49.012;8.610;2024-02-15T10:20:23;2.65;;;0.88;;
25319;SDS011;13256;49.012;8.610;2024-02-15T10:23:09;1.58;;;0.88;;
25319;SDS011;13256;49.012;8.610;2024-02-15T10:25:44;1.40;;;0.70;;
25319;SDS011;13256;49.012;8.610;2024-02-15T10:28:20;3.35;;;1.05;;
25319;SDS011;13256;49.012;8.610;2024-02-15T10:30:51;3.15;;;0.77;;
25319;SDS011;13256;49.012;8.610;2024-02-15T10:33:38;2.58;;;0.80;;
25319;SDS011;13256;49.012;8.610;2024-02-15T10:38:37;3.97;;;1.10;;
25319;SDS011;13256;49.012;8.610;2024-02-15T10:41:07;3.05;;;0.70;;
25319;SDS011;13256;49.012;8.610;2024-02-15T10:43:36;2.65;;;0.63;;
25319;SDS011;13256;49.012;8.610;2024-02-15T10:46:10;8.00;;;0.80;;
25319;SDS011;13256;49.012;8.610;2024-02-15T10:48:48;3.17;;;0.75;;
